sensor_id;sensor_type;location;lat;lon;timestamp;P1;durP1;ratioP1;P2;durP2;ratioP2
59388;SDS011;51830;45.202;19.720;2023-04-20T00:00:15;18.30;;;6.60;;
59388;SDS011;51830;45.202;19.720;2023-04-20T00:02:42;19.08;;;5.85;;
59388;SDS011;51830;45.202;19.720;2023-04-20T00:05:09;17.30;;;5.82;;
59388;SDS011;51830;45.202;19.720;2023-04-20T00:07:36;18.63;;;6.07;;
59388;SDS011;51830;45.202;19.720;2023-04-20T00:10:02;17.98;;;5.40;;
59388;SDS011;51830;45.202;19.720;2023-04-20T00:12:29;22.90;;;6.15;;
59388;SDS011;51830;45.202;19.720;2023-04-20T00:14:55;20.40;;;6.15;;
59388;SDS011;51830;45.202;19.720;2023-04-20T00:17:21;18.63;;;5.90;;
59388;SDS011;51830;45.202;19.720;2023-04-20T00:19:48;17.77;;;5.88;;
59388;SDS011;51830;45.202;19.720;2023-04-20T00:22:15;17.10;;;5.50;;
59388;SDS011;51830;45.202;19.720;2023-04-20T00:24:41;17.65;;;6.28;;
59388;SDS011;51830;45.202;19.720;2023-04-20T00:27:07;17.63;;;6.03;;
59388;SDS011;51830;45.202;19.720;2023-04-20T00:29:34;19.27;;;6.43;;
59388;SDS011;51830;45.202;19.720;2023-04-20T00:32:00;17.98;;;6.43;;
59388;SDS011;51830;45.202;19.720;2023-04-20T00:34:26;18.00;;;6.10;;
59388;SDS011;51830;45.202;19.720;2023-04-20T00:36:52;21.95;;;6.53;;
59388;SDS011;51830;45.202;19.720;2023-04-20T00:39:18;16.90;;;5.70;;
59388;SDS011;51830;45.202;19.720;2023-04-20T00:41:44;16.25;;;5.32;;
59388;SDS011;51830;45.202;19.720;2023-04-20T00:44:10;15.13;;;5.53;;
59388;SDS011;51830;45.202;19.720;2023-04-20T00:46:38;17.75;;;5.80;;
59388;SDS011;51830;45.202;19.720;2023-04-20T00:49:05;17.20;;;5.70;;
59388;SDS011;51830;45.202;19.720;2023-04-20T00:51:31;17.10;;;5.60;;
59388;SDS011;51830;45.202;19.720;2023-04-20T00:53:58;19.05;;;6.40;;
59388;SDS011;51830;45.202;19.720;2023-04-20T00:56:24;19.77;;;6.15;;
59388;SDS011;51830;45.202;19.720;2023-04-20T00:58:51;18.25;;;6.30;;
59388;SDS011;51830;45.202;19.720;2023-04-20T01:01:17;16.10;;;5.47;;
59388;SDS011;51830;45.202;19.720;2023-04-20T01:03:43;16.85;;;5.65;;
59388;SDS011;51830;45.202;19.720;2023-04-20T01:06:11;19.75;;;7.15;;
59388;SDS011;51830;45.202;19.720;2023-04-20T01:08:44;18.05;;;6.05;;
59388;SDS011;51830;45.202;19.720;2023-04-20T01:11:10;23.33;;;8.35;;
59388;SDS011;51830;45.202;19.720;2023-04-20T01:13:36;18.85;;;6.82;;
59388;SDS011;51830;45.202;19.720;2023-04-20T01:16:03;19.35;;;7.55;;
59388;SDS011;51830;45.202;19.720;2023-04-20T01:18:39;21.55;;;8.00;;
59388;SDS011;51830;45.202;19.720;2023-04-20T01:21:05;18.48;;;7.00;;
59388;SDS011;51830;45.202;19.720;2023-04-20T01:23:33;24.17;;;8.32;;
59388;SDS011;51830;45.202;19.720;2023-04-20T01:25:59;20.15;;;7.28;;
59388;SDS011;51830;45.202;19.720;2023-04-20T01:28:26;20.80;;;7.57;;
59388;SDS011;51830;45.202;19.720;2023-04-20T01:30:52;24.75;;;7.85;;
59388;SDS011;51830;45.202;19.720;2023-04-20T01:33:18;34.05;;;13.77;;
59388;SDS011;51830;45.202;19.720;2023-04-20T01:35:44;31.75;;;11.45;;
59388;SDS011;51830;45.202;19.720;2023-04-20T01:38:16;26.92;;;10.75;;
59388;SDS011;51830;45.202;19.720;2023-04-20T01:40:42;27.40;;;12.40;;
59388;SDS011;51830;45.202;19.720;2023-04-20T01:43:08;25.75;;;10.57;;
59388;SDS011;51830;45.202;19.720;2023-04-20T01:45:35;22.48;;;9.25;;
59388;SDS011;51830;45.202;19.720;2023-04-20T01:48:01;21.65;;;9.02;;
59388;SDS011;51830;45.202;19.720;2023-04-20T01:50:27;19.05;;;7.80;;
59388;SDS011;51830;45.202;19.720;2023-04-20T01:52:53;18.83;;;7.00;;
59388;SDS011;51830;45.202;19.720;2023-04-20T01:55:19;19.17;;;6.55;;
59388;SDS011;51830;45.202;19.720;2023-04-20T01:57:45;21.42;;;7.82;;
59388;SDS011;51830;45.202;19.720;2023-04-20T02:00:12;18.83;;;6.78;;
59388;SDS011;51830;45.202;19.720;2023-04-20T02:02:38;19.23;;;7.78;;
59388;SDS011;51830;45.202;19.720;2023-04-20T02:05:05;19.42;;;7.18;;
59388;SDS011;51830;45.202;19.720;2023-04-20T02:07:31;20.55;;;7.72;;
59388;SDS011;51830;45.202;19.720;2023-04-20T02:09:57;20.85;;;7.45;;
59388;SDS011;51830;45.202;19.720;2023-04-20T02:12:23;19.80;;;7.63;;
59388;SDS011;51830;45.202;19.720;2023-04-20T02:14:50;21.42;;;7.22;;
59388;SDS011;51830;45.202;19.720;2023-04-20T02:17:16;19.60;;;7.60;;
59388;SDS011;51830;45.202;19.720;2023-04-20T02:19:42;19.75;;;7.95;;
59388;SDS011;51830;45.202;19.720;2023-04-20T02:22:08;18.15;;;6.80;;
59388;SDS011;51830;45.202;19.720;2023-04-20T02:24:36;19.73;;;7.53;;
59388;SDS011;51830;45.202;19.720;2023-04-20T02:27:02;25.27;;;8.35;;
59388;SDS011;51830;45.202;19.720;2023-04-20T02:29:29;21.25;;;7.35;;
59388;SDS011;51830;45.202;19.720;2023-04-20T02:31:55;20.17;;;7.03;;
59388;SDS011;51830;45.202;19.720;2023-04-20T02:34:21;20.05;;;7.97;;
59388;SDS011;51830;45.202;19.720;2023-04-20T02:36:47;20.35;;;7.50;;
59388;SDS011;51830;45.202;19.720;2023-04-20T02:39:13;22.00;;;8.60;;
59388;SDS011;51830;45.202;19.720;2023-04-20T02:41:40;19.70;;;7.72;;
59388;SDS011;51830;45.202;19.720;2023-04-20T02:44:06;22.73;;;7.97;;
59388;SDS011;51830;45.202;19.720;2023-04-20T02:46:32;20.13;;;7.57;;
59388;SDS011;51830;45.202;19.720;2023-04-20T02:48:58;16.45;;;6.00;;
59388;SDS011;51830;45.202;19.720;2023-04-20T02:51:24;20.80;;;7.78;;
59388;SDS011;51830;45.202;19.720;2023-04-20T02:53:51;21.05;;;7.38;;
59388;SDS011;51830;45.202;19.720;2023-04-20T02:56:17;25.58;;;9.75;;
59388;SDS011;51830;45.202;19.720;2023-04-20T02:58:43;27.50;;;9.82;;
59388;SDS011;51830;45.202;19.720;2023-04-20T03:01:10;25.50;;;8.55;;
59388;SDS011;51830;45.202;19.720;2023-04-20T03:03:36;26.05;;;8.82;;
59388;SDS011;51830;45.202;19.720;2023-04-20T03:06:03;25.65;;;9.38;;
59388;SDS011;51830;45.202;19.720;2023-04-20T03:08:29;24.08;;;8.48;;
59388;SDS011;51830;45.202;19.720;2023-04-20T03:10:55;23.55;;;8.23;;
59388;SDS011;51830;45.202;19.720;2023-04-20T03:13:21;23.52;;;9.23;;
59388;SDS011;51830;45.202;19.720;2023-04-20T03:15:48;25.13;;;9.48;;
59388;SDS011;51830;45.202;19.720;2023-04-20T03:18:14;27.02;;;9.13;;
59388;SDS011;51830;45.202;19.720;2023-04-20T03:20:40;27.27;;;9.02;;
59388;SDS011;51830;45.202;19.720;2023-04-20T03:23:06;22.70;;;7.93;;
59388;SDS011;51830;45.202;19.720;2023-04-20T03:25:32;23.77;;;7.82;;
59388;SDS011;51830;45.202;19.720;2023-04-20T03:27:58;22.63;;;8.68;;
59388;SDS011;51830;45.202;19.720;2023-04-20T03:30:24;22.95;;;8.75;;
59388;SDS011;51830;45.202;19.720;2023-04-20T03:32:51;21.85;;;8.45;;
59388;SDS011;51830;45.202;19.720;2023-04-20T03:35:17;25.58;;;9.20;;
59388;SDS011;51830;45.202;19.720;2023-04-20T03:37:44;20.85;;;7.00;;
59388;SDS011;51830;45.202;19.720;2023-04-20T03:40:11;21.10;;;8.48;;
59388;SDS011;51830;45.202;19.720;2023-04-20T03:42:37;22.67;;;8.73;;
59388;SDS011;51830;45.202;19.720;2023-04-20T03:45:04;23.73;;;8.43;;
59388;SDS011;51830;45.202;19.720;2023-04-20T03:47:31;22.13;;;8.52;;
59388;SDS011;51830;45.202;19.720;2023-04-20T03:49:57;23.45;;;8.63;;
59388;SDS011;51830;45.202;19.720;2023-04-20T03:52:23;25.40;;;9.10;;
59388;SDS011;51830;45.202;19.720;2023-04-20T03:54:50;26.88;;;8.60;;
59388;SDS011;51830;45.202;19.720;2023-04-20T03:57:16;22.50;;;8.48;;
59388;SDS011;51830;45.202;19.720;2023-04-20T03:59:42;23.45;;;9.13;;
59388;SDS011;51830;45.202;19.720;2023-04-20T04:02:08;22.13;;;7.88;;
59388;SDS011;51830;45.202;19.720;2023-04-20T04:04:38;28.38;;;11.00;;
59388;SDS011;51830;45.202;19.720;2023-04-20T04:07:04;25.02;;;9.65;;
59388;SDS011;51830;45.202;19.720;2023-04-20T04:09:31;40.70;;;9.50;;
59388;SDS011;51830;45.202;19.720;2023-04-20T04:11:57;30.60;;;10.07;;
59388;SDS011;51830;45.202;19.720;2023-04-20T04:14:23;24.52;;;9.75;;
59388;SDS011;51830;45.202;19.720;2023-04-20T04:16:49;24.80;;;9.60;;
59388;SDS011;51830;45.202;19.720;2023-04-20T04:19:15;28.90;;;10.48;;
59388;SDS011;51830;45.202;19.720;2023-04-20T04:21:42;40.00;;;10.82;;
59388;SDS011;51830;45.202;19.720;2023-04-20T04:24:08;25.35;;;9.27;;
59388;SDS011;51830;45.202;19.720;2023-04-20T04:26:34;25.50;;;9.32;;
59388;SDS011;51830;45.202;19.720;2023-04-20T04:29:00;31.65;;;11.20;;
59388;SDS011;51830;45.202;19.720;2023-04-20T04:31:28;31.05;;;15.73;;
59388;SDS011;51830;45.202;19.720;2023-04-20T04:33:55;32.35;;;14.25;;
59388;SDS011;51830;45.202;19.720;2023-04-20T04:36:21;31.05;;;13.13;;
59388;SDS011;51830;45.202;19.720;2023-04-20T04:38:48;30.85;;;11.38;;
59388;SDS011;51830;45.202;19.720;2023-04-20T04:41:14;28.38;;;10.98;;
59388;SDS011;51830;45.202;19.720;2023-04-20T04:43:41;26.10;;;9.80;;
59388;SDS011;51830;45.202;19.720;2023-04-20T04:46:08;28.15;;;11.20;;
59388;SDS011;51830;45.202;19.720;2023-04-20T04:48:35;29.88;;;10.10;;
59388;SDS011;51830;45.202;19.720;2023-04-20T04:51:01;25.33;;;11.07;;
59388;SDS011;51830;45.202;19.720;2023-04-20T04:53:27;24.90;;;10.13;;
59388;SDS011;51830;45.202;19.720;2023-04-20T04:55:54;36.45;;;11.00;;
59388;SDS011;51830;45.202;19.720;2023-04-20T04:58:20;25.98;;;9.85;;
59388;SDS011;51830;45.202;19.720;2023-04-20T05:00:46;29.98;;;12.05;;
59388;SDS011;51830;45.202;19.720;2023-04-20T05:03:12;31.48;;;13.30;;
59388;SDS011;51830;45.202;19.720;2023-04-20T05:05:40;32.80;;;13.25;;
59388;SDS011;51830;45.202;19.720;2023-04-20T05:08:06;26.67;;;10.80;;
59388;SDS011;51830;45.202;19.720;2023-04-20T05:10:32;33.90;;;13.63;;
59388;SDS011;51830;45.202;19.720;2023-04-20T05:12:58;33.55;;;14.02;;
59388;SDS011;51830;45.202;19.720;2023-04-20T05:15:24;38.03;;;12.93;;
59388;SDS011;51830;45.202;19.720;2023-04-20T05:17:51;27.52;;;11.82;;
59388;SDS011;51830;45.202;19.720;2023-04-20T05:20:17;27.73;;;11.23;;
59388;SDS011;51830;45.202;19.720;2023-04-20T05:22:43;29.50;;;11.55;;
59388;SDS011;51830;45.202;19.720;2023-04-20T05:25:09;29.45;;;10.50;;
59388;SDS011;51830;45.202;19.720;2023-04-20T05:27:36;26.05;;;10.90;;
59388;SDS011;51830;45.202;19.720;2023-04-20T05:30:02;31.52;;;9.95;;
59388;SDS011;51830;45.202;19.720;2023-04-20T05:32:28;23.85;;;9.98;;
59388;SDS011;51830;45.202;19.720;2023-04-20T05:34:54;24.27;;;10.13;;
59388;SDS011;51830;45.202;19.720;2023-04-20T05:37:22;26.80;;;11.48;;
59388;SDS011;51830;45.202;19.720;2023-04-20T05:39:48;30.10;;;10.57;;
59388;SDS011;51830;45.202;19.720;2023-04-20T05:42:14;25.48;;;10.45;;
59388;SDS011;51830;45.202;19.720;2023-04-20T05:44:40;25.33;;;10.20;;
59388;SDS011;51830;45.202;19.720;2023-04-20T05:47:08;26.00;;;11.10;;
59388;SDS011;51830;45.202;19.720;2023-04-20T05:49:34;24.73;;;10.48;;
59388;SDS011;51830;45.202;19.720;2023-04-20T05:52:00;28.00;;;10.95;;
59388;SDS011;51830;45.202;19.720;2023-04-20T05:54:27;26.23;;;10.07;;
59388;SDS011;51830;45.202;19.720;2023-04-20T05:56:54;29.98;;;12.93;;
59388;SDS011;51830;45.202;19.720;2023-04-20T05:59:21;33.13;;;11.25;;
59388;SDS011;51830;45.202;19.720;2023-04-20T06:01:47;26.05;;;9.98;;
59388;SDS011;51830;45.202;19.720;2023-04-20T06:04:14;26.92;;;10.57;;
59388;SDS011;51830;45.202;19.720;2023-04-20T06:06:40;31.08;;;11.25;;
59388;SDS011;51830;45.202;19.720;2023-04-20T06:09:06;33.38;;;12.77;;
59388;SDS011;51830;45.202;19.720;2023-04-20T06:11:32;26.92;;;11.15;;
59388;SDS011;51830;45.202;19.720;2023-04-20T06:13:58;27.23;;;11.15;;
59388;SDS011;51830;45.202;19.720;2023-04-20T06:16:25;24.70;;;10.77;;
59388;SDS011;51830;45.202;19.720;2023-04-20T06:18:51;27.80;;;10.88;;
59388;SDS011;51830;45.202;19.720;2023-04-20T06:21:17;25.90;;;9.85;;
59388;SDS011;51830;45.202;19.720;2023-04-20T06:23:44;27.52;;;9.80;;
59388;SDS011;51830;45.202;19.720;2023-04-20T06:26:11;25.42;;;9.77;;
59388;SDS011;51830;45.202;19.720;2023-04-20T06:28:37;24.95;;;10.18;;
59388;SDS011;51830;45.202;19.720;2023-04-20T06:31:03;24.10;;;10.10;;
59388;SDS011;51830;45.202;19.720;2023-04-20T06:33:30;25.83;;;8.73;;
59388;SDS011;51830;45.202;19.720;2023-04-20T06:35:56;22.92;;;8.70;;
59388;SDS011;51830;45.202;19.720;2023-04-20T06:38:23;25.15;;;9.32;;
59388;SDS011;51830;45.202;19.720;2023-04-20T06:40:52;20.20;;;8.43;;
59388;SDS011;51830;45.202;19.720;2023-04-20T06:43:18;23.08;;;8.50;;
59388;SDS011;51830;45.202;19.720;2023-04-20T06:45:45;31.70;;;10.02;;
59388;SDS011;51830;45.202;19.720;2023-04-20T06:48:11;26.35;;;8.45;;
59388;SDS011;51830;45.202;19.720;2023-04-20T06:50:37;21.40;;;8.68;;
59388;SDS011;51830;45.202;19.720;2023-04-20T06:53:03;21.52;;;8.13;;
59388;SDS011;51830;45.202;19.720;2023-04-20T06:55:30;24.30;;;9.68;;
59388;SDS011;51830;45.202;19.720;2023-04-20T06:57:56;24.80;;;9.00;;
59388;SDS011;51830;45.202;19.720;2023-04-20T07:00:22;28.17;;;9.25;;
59388;SDS011;51830;45.202;19.720;2023-04-20T07:02:51;26.08;;;9.68;;
59388;SDS011;51830;45.202;19.720;2023-04-20T07:05:17;23.50;;;9.45;;
59388;SDS011;51830;45.202;19.720;2023-04-20T07:07:44;23.98;;;9.48;;
59388;SDS011;51830;45.202;19.720;2023-04-20T07:10:11;22.48;;;9.05;;
59388;SDS011;51830;45.202;19.720;2023-04-20T07:12:38;22.20;;;8.65;;
59388;SDS011;51830;45.202;19.720;2023-04-20T07:15:05;32.25;;;9.95;;
59388;SDS011;51830;45.202;19.720;2023-04-20T07:17:31;24.17;;;8.23;;
59388;SDS011;51830;45.202;19.720;2023-04-20T07:19:58;26.15;;;8.05;;
59388;SDS011;51830;45.202;19.720;2023-04-20T07:22:31;22.02;;;8.55;;
59388;SDS011;51830;45.202;19.720;2023-04-20T07:24:59;20.70;;;8.57;;
59388;SDS011;51830;45.202;19.720;2023-04-20T07:27:26;21.23;;;8.38;;
59388;SDS011;51830;45.202;19.720;2023-04-20T07:29:54;22.60;;;8.43;;
59388;SDS011;51830;45.202;19.720;2023-04-20T07:32:20;27.40;;;8.50;;
59388;SDS011;51830;45.202;19.720;2023-04-20T07:34:46;22.80;;;8.02;;
59388;SDS011;51830;45.202;19.720;2023-04-20T07:37:13;22.50;;;8.20;;
59388;SDS011;51830;45.202;19.720;2023-04-20T07:39:39;26.27;;;8.15;;
59388;SDS011;51830;45.202;19.720;2023-04-20T07:42:06;27.13;;;8.40;;
59388;SDS011;51830;45.202;19.720;2023-04-20T07:44:35;23.98;;;8.52;;
59388;SDS011;51830;45.202;19.720;2023-04-20T07:47:01;23.75;;;8.15;;
59388;SDS011;51830;45.202;19.720;2023-04-20T07:49:28;21.48;;;8.13;;
59388;SDS011;51830;45.202;19.720;2023-04-20T07:51:54;22.40;;;8.20;;
59388;SDS011;51830;45.202;19.720;2023-04-20T07:54:20;19.35;;;6.70;;
59388;SDS011;51830;45.202;19.720;2023-04-20T07:56:47;18.90;;;7.35;;
59388;SDS011;51830;45.202;19.720;2023-04-20T07:59:13;19.17;;;7.00;;
59388;SDS011;51830;45.202;19.720;2023-04-20T08:01:39;18.48;;;6.68;;
59388;SDS011;51830;45.202;19.720;2023-04-20T08:04:05;18.55;;;6.65;;
59388;SDS011;51830;45.202;19.720;2023-04-20T08:06:31;19.02;;;6.38;;
59388;SDS011;51830;45.202;19.720;2023-04-20T08:08:57;19.77;;;6.93;;
59388;SDS011;51830;45.202;19.720;2023-04-20T08:11:23;17.75;;;6.22;;
59388;SDS011;51830;45.202;19.720;2023-04-20T08:13:50;26.83;;;9.85;;
59388;SDS011;51830;45.202;19.720;2023-04-20T08:16:16;22.35;;;7.32;;
59388;SDS011;51830;45.202;19.720;2023-04-20T08:18:43;19.63;;;5.90;;
59388;SDS011;51830;45.202;19.720;2023-04-20T08:21:09;19.20;;;6.63;;
59388;SDS011;51830;45.202;19.720;2023-04-20T08:23:35;18.38;;;6.70;;
59388;SDS011;51830;45.202;19.720;2023-04-20T08:26:02;16.67;;;5.47;;
59388;SDS011;51830;45.202;19.720;2023-04-20T08:28:28;18.88;;;6.32;;
59388;SDS011;51830;45.202;19.720;2023-04-20T08:30:54;20.60;;;7.70;;
59388;SDS011;51830;45.202;19.720;2023-04-20T08:33:20;18.30;;;6.60;;
59388;SDS011;51830;45.202;19.720;2023-04-20T08:35:49;18.20;;;6.13;;
59388;SDS011;51830;45.202;19.720;2023-04-20T08:38:15;20.27;;;6.53;;
59388;SDS011;51830;45.202;19.720;2023-04-20T08:40:42;19.55;;;6.50;;
59388;SDS011;51830;45.202;19.720;2023-04-20T08:43:08;22.30;;;7.22;;
59388;SDS011;51830;45.202;19.720;2023-04-20T08:45:34;18.00;;;6.40;;
59388;SDS011;51830;45.202;19.720;2023-04-20T08:48:04;18.75;;;7.00;;
59388;SDS011;51830;45.202;19.720;2023-04-20T08:50:31;23.23;;;6.65;;
59388;SDS011;51830;45.202;19.720;2023-04-20T08:52:57;22.17;;;7.28;;
59388;SDS011;51830;45.202;19.720;2023-04-20T08:55:23;21.25;;;7.60;;
59388;SDS011;51830;45.202;19.720;2023-04-20T08:57:50;19.50;;;6.93;;
59388;SDS011;51830;45.202;19.720;2023-04-20T09:00:16;18.90;;;7.68;;
59388;SDS011;51830;45.202;19.720;2023-04-20T09:02:50;18.75;;;7.10;;
59388;SDS011;51830;45.202;19.720;2023-04-20T09:05:23;20.83;;;6.90;;
59388;SDS011;51830;45.202;19.720;2023-04-20T09:07:51;18.27;;;6.75;;
59388;SDS011;51830;45.202;19.720;2023-04-20T09:10:21;17.27;;;6.35;;
59388;SDS011;51830;45.202;19.720;2023-04-20T09:12:48;19.08;;;6.47;;
59388;SDS011;51830;45.202;19.720;2023-04-20T09:15:36;20.92;;;6.70;;
59388;SDS011;51830;45.202;19.720;2023-04-20T09:18:12;18.23;;;7.07;;
59388;SDS011;51830;45.202;19.720;2023-04-20T09:20:38;20.67;;;7.30;;
59388;SDS011;51830;45.202;19.720;2023-04-20T09:23:19;18.95;;;6.93;;
59388;SDS011;51830;45.202;19.720;2023-04-20T09:25:48;19.02;;;7.13;;
59388;SDS011;51830;45.202;19.720;2023-04-20T09:28:16;18.63;;;7.10;;
59388;SDS011;51830;45.202;19.720;2023-04-20T09:30:46;21.40;;;7.30;;
59388;SDS011;51830;45.202;19.720;2023-04-20T09:33:13;20.63;;;6.35;;
59388;SDS011;51830;45.202;19.720;2023-04-20T09:35:40;20.20;;;7.63;;
59388;SDS011;51830;45.202;19.720;2023-04-20T09:38:07;20.23;;;7.03;;
59388;SDS011;51830;45.202;19.720;2023-04-20T09:40:34;20.13;;;6.70;;
59388;SDS011;51830;45.202;19.720;2023-04-20T09:43:08;18.67;;;6.63;;
59388;SDS011;51830;45.202;19.720;2023-04-20T09:45:35;17.67;;;6.90;;
59388;SDS011;51830;45.202;19.720;2023-04-20T09:48:07;21.00;;;6.95;;
59388;SDS011;51830;45.202;19.720;2023-04-20T09:50:34;19.17;;;6.38;;
59388;SDS011;51830;45.202;19.720;2023-04-20T09:53:02;16.95;;;6.13;;
59388;SDS011;51830;45.202;19.720;2023-04-20T09:55:29;19.83;;;6.40;;
59388;SDS011;51830;45.202;19.720;2023-04-20T09:57:56;17.80;;;6.20;;
59388;SDS011;51830;45.202;19.720;2023-04-20T10:00:23;16.77;;;6.25;;
59388;SDS011;51830;45.202;19.720;2023-04-20T10:02:49;16.40;;;6.05;;
59388;SDS011;51830;45.202;19.720;2023-04-20T10:05:16;18.27;;;6.38;;
59388;SDS011;51830;45.202;19.720;2023-04-20T10:07:42;17.42;;;6.60;;
59388;SDS011;51830;45.202;19.720;2023-04-20T10:10:10;18.73;;;6.65;;
59388;SDS011;51830;45.202;19.720;2023-04-20T10:12:46;18.90;;;6.10;;
59388;SDS011;51830;45.202;19.720;2023-04-20T10:15:12;19.35;;;5.65;;
59388;SDS011;51830;45.202;19.720;2023-04-20T10:17:38;17.13;;;5.72;;
59388;SDS011;51830;45.202;19.720;2023-04-20T10:20:16;18.10;;;6.25;;
59388;SDS011;51830;45.202;19.720;2023-04-20T10:22:43;19.77;;;5.97;;
59388;SDS011;51830;45.202;19.720;2023-04-20T10:25:19;20.88;;;5.50;;
59388;SDS011;51830;45.202;19.720;2023-04-20T10:27:52;16.58;;;5.93;;
59388;SDS011;51830;45.202;19.720;2023-04-20T10:30:18;17.15;;;6.20;;
59388;SDS011;51830;45.202;19.720;2023-04-20T10:32:45;15.77;;;5.32;;
59388;SDS011;51830;45.202;19.720;2023-04-20T10:35:11;17.52;;;5.88;;
59388;SDS011;51830;45.202;19.720;2023-04-20T10:37:50;16.67;;;5.45;;
59388;SDS011;51830;45.202;19.720;2023-04-20T10:40:23;17.25;;;5.40;;
59388;SDS011;51830;45.202;19.720;2023-04-20T10:42:51;17.85;;;5.25;;
59388;SDS011;51830;45.202;19.720;2023-04-20T10:45:17;17.77;;;5.60;;
59388;SDS011;51830;45.202;19.720;2023-04-20T10:47:45;17.50;;;5.60;;
59388;SDS011;51830;45.202;19.720;2023-04-20T10:50:12;17.13;;;5.20;;
59388;SDS011;51830;45.202;19.720;2023-04-20T10:52:39;13.93;;;4.15;;
59388;SDS011;51830;45.202;19.720;2023-04-20T10:55:06;17.02;;;4.40;;
59388;SDS011;51830;45.202;19.720;2023-04-20T10:57:45;14.75;;;4.78;;
59388;SDS011;51830;45.202;19.720;2023-04-20T11:00:15;16.40;;;4.93;;
59388;SDS011;51830;45.202;19.720;2023-04-20T11:02:46;17.70;;;4.95;;
59388;SDS011;51830;45.202;19.720;2023-04-20T11:05:13;16.52;;;5.38;;
59388;SDS011;51830;45.202;19.720;2023-04-20T11:07:46;16.70;;;5.53;;
59388;SDS011;51830;45.202;19.720;2023-04-20T11:10:12;19.77;;;5.25;;
59388;SDS011;51830;45.202;19.720;2023-04-20T11:12:39;15.15;;;4.65;;
59388;SDS011;51830;45.202;19.720;2023-04-20T11:15:05;14.45;;;4.50;;
59388;SDS011;51830;45.202;19.720;2023-04-20T11:17:34;16.17;;;4.95;;
59388;SDS011;51830;45.202;19.720;2023-04-20T11:22:40;15.68;;;4.65;;
59388;SDS011;51830;45.202;19.720;2023-04-20T11:25:07;16.15;;;5.30;;
59388;SDS011;51830;45.202;19.720;2023-04-20T11:27:35;14.57;;;4.72;;
59388;SDS011;51830;45.202;19.720;2023-04-20T11:30:01;17.23;;;5.28;;
59388;SDS011;51830;45.202;19.720;2023-04-20T11:32:32;15.50;;;5.40;;
59388;SDS011;51830;45.202;19.720;2023-04-20T11:34:59;16.55;;;5.32;;
59388;SDS011;51830;45.202;19.720;2023-04-20T11:37:26;18.77;;;5.82;;
59388;SDS011;51830;45.202;19.720;2023-04-20T11:40:14;16.52;;;5.78;;
59388;SDS011;51830;45.202;19.720;2023-04-20T11:42:39;17.02;;;6.40;;
59388;SDS011;51830;45.202;19.720;2023-04-20T11:45:05;17.08;;;5.95;;
59388;SDS011;51830;45.202;19.720;2023-04-20T11:47:32;16.67;;;5.68;;
59388;SDS011;51830;45.202;19.720;2023-04-20T11:49:58;17.50;;;5.57;;
59388;SDS011;51830;45.202;19.720;2023-04-20T11:52:25;19.58;;;6.00;;
59388;SDS011;51830;45.202;19.720;2023-04-20T11:54:51;16.25;;;5.60;;
59388;SDS011;51830;45.202;19.720;2023-04-20T11:57:17;19.65;;;5.95;;
59388;SDS011;51830;45.202;19.720;2023-04-20T11:59:45;16.70;;;5.47;;
59388;SDS011;51830;45.202;19.720;2023-04-20T12:02:13;15.70;;;5.05;;
59388;SDS011;51830;45.202;19.720;2023-04-20T12:04:39;18.50;;;5.55;;
59388;SDS011;51830;45.202;19.720;2023-04-20T12:07:06;17.55;;;5.60;;
59388;SDS011;51830;45.202;19.720;2023-04-20T12:09:33;16.50;;;5.20;;
59388;SDS011;51830;45.202;19.720;2023-04-20T12:12:04;13.85;;;4.20;;
59388;SDS011;51830;45.202;19.720;2023-04-20T12:14:30;17.05;;;5.18;;
59388;SDS011;51830;45.202;19.720;2023-04-20T12:16:58;17.33;;;5.45;;
59388;SDS011;51830;45.202;19.720;2023-04-20T12:19:24;15.23;;;4.78;;
59388;SDS011;51830;45.202;19.720;2023-04-20T12:21:50;17.38;;;5.50;;
59388;SDS011;51830;45.202;19.720;2023-04-20T12:24:16;15.85;;;5.03;;
59388;SDS011;51830;45.202;19.720;2023-04-20T12:26:42;15.95;;;5.38;;
59388;SDS011;51830;45.202;19.720;2023-04-20T12:29:08;18.23;;;5.43;;
59388;SDS011;51830;45.202;19.720;2023-04-20T12:31:35;16.58;;;5.22;;
59388;SDS011;51830;45.202;19.720;2023-04-20T12:34:01;16.58;;;5.30;;
59388;SDS011;51830;45.202;19.720;2023-04-20T12:36:28;18.17;;;5.60;;
59388;SDS011;51830;45.202;19.720;2023-04-20T12:38:54;15.65;;;5.25;;
59388;SDS011;51830;45.202;19.720;2023-04-20T12:41:21;15.70;;;4.93;;
59388;SDS011;51830;45.202;19.720;2023-04-20T12:43:50;15.57;;;5.25;;
59388;SDS011;51830;45.202;19.720;2023-04-20T12:46:17;15.27;;;4.78;;
59388;SDS011;51830;45.202;19.720;2023-04-20T12:48:43;15.88;;;5.07;;
59388;SDS011;51830;45.202;19.720;2023-04-20T12:51:10;16.08;;;5.22;;
59388;SDS011;51830;45.202;19.720;2023-04-20T12:53:36;14.55;;;4.78;;
59388;SDS011;51830;45.202;19.720;2023-04-20T12:56:03;14.32;;;4.72;;
59388;SDS011;51830;45.202;19.720;2023-04-20T12:58:29;16.35;;;5.30;;
59388;SDS011;51830;45.202;19.720;2023-04-20T13:00:55;17.65;;;5.93;;
59388;SDS011;51830;45.202;19.720;2023-04-20T13:03:22;15.70;;;5.20;;
59388;SDS011;51830;45.202;19.720;2023-04-20T13:05:48;17.38;;;5.88;;
59388;SDS011;51830;45.202;19.720;2023-04-20T13:08:14;16.40;;;4.90;;
59388;SDS011;51830;45.202;19.720;2023-04-20T13:10:40;16.35;;;5.30;;
59388;SDS011;51830;45.202;19.720;2023-04-20T13:13:08;15.05;;;4.47;;
59388;SDS011;51830;45.202;19.720;2023-04-20T13:15:34;14.70;;;4.75;;
59388;SDS011;51830;45.202;19.720;2023-04-20T13:18:01;15.70;;;4.97;;
59388;SDS011;51830;45.202;19.720;2023-04-20T13:20:27;16.42;;;4.57;;
59388;SDS011;51830;45.202;19.720;2023-04-20T13:22:55;14.05;;;4.40;;
59388;SDS011;51830;45.202;19.720;2023-04-20T13:25:25;15.35;;;4.80;;
59388;SDS011;51830;45.202;19.720;2023-04-20T13:27:54;16.05;;;4.82;;
59388;SDS011;51830;45.202;19.720;2023-04-20T13:30:22;16.60;;;4.85;;
59388;SDS011;51830;45.202;19.720;2023-04-20T13:32:48;15.02;;;4.65;;
59388;SDS011;51830;45.202;19.720;2023-04-20T13:35:15;15.07;;;4.68;;
59388;SDS011;51830;45.202;19.720;2023-04-20T13:37:41;14.68;;;4.63;;
59388;SDS011;51830;45.202;19.720;2023-04-20T13:40:08;16.15;;;4.50;;
59388;SDS011;51830;45.202;19.720;2023-04-20T13:42:34;16.35;;;4.93;;
59388;SDS011;51830;45.202;19.720;2023-04-20T13:45:01;14.10;;;4.75;;
59388;SDS011;51830;45.202;19.720;2023-04-20T13:47:27;15.77;;;4.95;;
59388;SDS011;51830;45.202;19.720;2023-04-20T13:49:53;16.83;;;4.38;;
59388;SDS011;51830;45.202;19.720;2023-04-20T13:52:20;16.75;;;5.00;;
59388;SDS011;51830;45.202;19.720;2023-04-20T13:54:47;14.35;;;4.13;;
59388;SDS011;51830;45.202;19.720;2023-04-20T13:57:13;14.85;;;4.57;;
59388;SDS011;51830;45.202;19.720;2023-04-20T13:59:39;16.45;;;5.20;;
59388;SDS011;51830;45.202;19.720;2023-04-20T14:02:05;15.13;;;4.72;;
59388;SDS011;51830;45.202;19.720;2023-04-20T14:04:31;15.77;;;5.13;;
59388;SDS011;51830;45.202;19.720;2023-04-20T14:06:58;15.65;;;4.88;;
59388;SDS011;51830;45.202;19.720;2023-04-20T14:09:24;17.77;;;5.60;;
59388;SDS011;51830;45.202;19.720;2023-04-20T14:11:52;17.67;;;5.50;;
59388;SDS011;51830;45.202;19.720;2023-04-20T14:14:18;16.98;;;5.07;;
59388;SDS011;51830;45.202;19.720;2023-04-20T14:16:45;17.90;;;5.50;;
59388;SDS011;51830;45.202;19.720;2023-04-20T14:19:12;19.40;;;5.72;;